Aviation Digital Data Service (ADDS)

Output produced by METARs form (0633 UTC 02 April 2015)
found at http://aviationweather.gov/adds/metars/
 
KMBS 020528Z 0206/0306 19012KT P6SM BKN200 WS010/23040KT 
     FM021300 22013G23KT P6SM BKN045 
     FM021600 22016G26KT P6SM -SHRA SCT025 BKN035 
     FM021800 23018G28KT 4SM -SHRA BKN025 OVC035 
     FM022300 30010KT P6SM BKN100